sensor_id;sensor_type;location;lat;lon;timestamp;P1;durP1;ratioP1;P2;durP2;ratioP2
46110;SDS011;31849;55.992;37.252;2023-07-28T00:01:43;0.43;;;0.30;;
46110;SDS011;31849;55.992;37.252;2023-07-28T00:06:48;0.50;;;0.30;;
46110;SDS011;31849;55.992;37.252;2023-07-28T00:11:51;0.65;;;0.50;;
46110;SDS011;31849;55.992;37.252;2023-07-28T00:16:55;0.60;;;0.40;;
46110;SDS011;31849;55.992;37.252;2023-07-28T00:22:01;0.98;;;0.68;;
46110;SDS011;31849;55.992;37.252;2023-07-28T00:27:05;0.45;;;0.35;;
46110;SDS011;31849;55.992;37.252;2023-07-28T00:37:13;0.38;;;0.38;;
46110;SDS011;31849;55.992;37.252;2023-07-28T00:42:17;0.50;;;0.50;;
46110;SDS011;31849;55.992;37.252;2023-07-28T00:47:20;0.60;;;0.40;;
46110;SDS011;31849;55.992;37.252;2023-07-28T00:52:26;2.42;;;0.93;;
46110;SDS011;31849;55.992;37.252;2023-07-28T00:57:29;0.70;;;0.60;;
46110;SDS011;31849;55.992;37.252;2023-07-28T01:02:33;0.60;;;0.40;;
46110;SDS011;31849;55.992;37.252;2023-07-28T01:07:40;0.50;;;0.30;;
46110;SDS011;31849;55.992;37.252;2023-07-28T01:12:50;0.60;;;0.40;;
46110;SDS011;31849;55.992;37.252;2023-07-28T01:17:53;0.57;;;0.43;;
46110;SDS011;31849;55.992;37.252;2023-07-28T01:23:09;0.47;;;0.30;;
46110;SDS011;31849;55.992;37.252;2023-07-28T01:28:22;0.60;;;0.50;;
46110;SDS011;31849;55.992;37.252;2023-07-28T01:33:26;0.88;;;0.60;;
46110;SDS011;31849;55.992;37.252;2023-07-28T01:38:30;0.50;;;0.40;;
46110;SDS011;31849;55.992;37.252;2023-07-28T01:43:37;0.60;;;0.40;;
46110;SDS011;31849;55.992;37.252;2023-07-28T01:48:40;0.50;;;0.40;;
46110;SDS011;31849;55.992;37.252;2023-07-28T01:53:44;0.60;;;0.40;;
46110;SDS011;31849;55.992;37.252;2023-07-28T01:58:49;0.55;;;0.35;;
46110;SDS011;31849;55.992;37.252;2023-07-28T02:03:53;0.52;;;0.32;;
46110;SDS011;31849;55.992;37.252;2023-07-28T02:08:57;0.60;;;0.40;;
46110;SDS011;31849;55.992;37.252;2023-07-28T02:14:02;0.50;;;0.30;;
46110;SDS011;31849;55.992;37.252;2023-07-28T02:19:06;0.57;;;0.38;;
46110;SDS011;31849;55.992;37.252;2023-07-28T02:29:14;0.50;;;0.40;;
46110;SDS011;31849;55.992;37.252;2023-07-28T02:34:18;0.50;;;0.40;;
46110;SDS011;31849;55.992;37.252;2023-07-28T02:39:22;0.50;;;0.40;;
46110;SDS011;31849;55.992;37.252;2023-07-28T02:44:34;0.50;;;0.30;;
46110;SDS011;31849;55.992;37.252;2023-07-28T02:49:40;0.55;;;0.40;;
46110;SDS011;31849;55.992;37.252;2023-07-28T02:54:44;0.60;;;0.40;;
46110;SDS011;31849;55.992;37.252;2023-07-28T02:59:49;0.60;;;0.45;;
46110;SDS011;31849;55.992;37.252;2023-07-28T03:04:53;0.70;;;0.70;;
46110;SDS011;31849;55.992;37.252;2023-07-28T03:09:57;0.60;;;0.40;;
46110;SDS011;31849;55.992;37.252;2023-07-28T03:15:02;0.88;;;0.73;;
46110;SDS011;31849;55.992;37.252;2023-07-28T03:20:06;0.60;;;0.40;;
46110;SDS011;31849;55.992;37.252;2023-07-28T03:25:10;0.70;;;0.50;;
46110;SDS011;31849;55.992;37.252;2023-07-28T03:30:16;0.60;;;0.40;;
46110;SDS011;31849;55.992;37.252;2023-07-28T03:35:20;0.70;;;0.55;;
46110;SDS011;31849;55.992;37.252;2023-07-28T03:45:29;2.88;;;1.15;;
46110;SDS011;31849;55.992;37.252;2023-07-28T03:50:33;0.63;;;0.50;;
46110;SDS011;31849;55.992;37.252;2023-07-28T03:55:37;0.80;;;0.75;;
46110;SDS011;31849;55.992;37.252;2023-07-28T04:00:42;0.70;;;0.60;;
46110;SDS011;31849;55.992;37.252;2023-07-28T04:05:45;1.02;;;0.93;;
46110;SDS011;31849;55.992;37.252;2023-07-28T04:15:54;0.98;;;0.88;;
46110;SDS011;31849;55.992;37.252;2023-07-28T04:20:58;1.02;;;0.68;;
46110;SDS011;31849;55.992;37.252;2023-07-28T04:26:01;0.80;;;0.75;;
46110;SDS011;31849;55.992;37.252;2023-07-28T04:31:06;0.50;;;0.40;;
46110;SDS011;31849;55.992;37.252;2023-07-28T04:36:10;1.15;;;0.60;;
46110;SDS011;31849;55.992;37.252;2023-07-28T04:41:13;0.63;;;0.50;;
46110;SDS011;31849;55.992;37.252;2023-07-28T04:46:19;0.40;;;0.30;;
46110;SDS011;31849;55.992;37.252;2023-07-28T04:51:22;0.50;;;0.40;;
46110;SDS011;31849;55.992;37.252;2023-07-28T04:56:26;0.60;;;0.40;;
46110;SDS011;31849;55.992;37.252;2023-07-28T05:01:31;0.50;;;0.40;;
46110;SDS011;31849;55.992;37.252;2023-07-28T05:06:36;0.60;;;0.50;;
46110;SDS011;31849;55.992;37.252;2023-07-28T05:11:40;1.13;;;0.68;;
46110;SDS011;31849;55.992;37.252;2023-07-28T05:16:45;0.70;;;0.57;;
46110;SDS011;31849;55.992;37.252;2023-07-28T05:21:49;0.65;;;0.52;;
46110;SDS011;31849;55.992;37.252;2023-07-28T05:26:52;0.80;;;0.68;;
46110;SDS011;31849;55.992;37.252;2023-07-28T05:31:58;0.70;;;0.50;;
46110;SDS011;31849;55.992;37.252;2023-07-28T05:37:06;1.15;;;0.80;;
46110;SDS011;31849;55.992;37.252;2023-07-28T05:47:16;0.93;;;0.82;;
46110;SDS011;31849;55.992;37.252;2023-07-28T05:52:20;0.60;;;0.50;;
46110;SDS011;31849;55.992;37.252;2023-07-28T06:02:28;0.63;;;0.50;;
46110;SDS011;31849;55.992;37.252;2023-07-28T06:07:32;1.30;;;1.20;;
46110;SDS011;31849;55.992;37.252;2023-07-28T06:17:41;1.10;;;0.93;;
46110;SDS011;31849;55.992;37.252;2023-07-28T06:22:45;0.50;;;0.40;;
46110;SDS011;31849;55.992;37.252;2023-07-28T06:27:49;1.52;;;0.73;;
46110;SDS011;31849;55.992;37.252;2023-07-28T06:32:54;0.85;;;0.73;;
46110;SDS011;31849;55.992;37.252;2023-07-28T06:37:58;1.02;;;0.85;;
46110;SDS011;31849;55.992;37.252;2023-07-28T06:43:02;0.70;;;0.60;;
46110;SDS011;31849;55.992;37.252;2023-07-28T06:48:08;1.05;;;0.95;;
46110;SDS011;31849;55.992;37.252;2023-07-28T06:53:11;1.15;;;0.95;;
46110;SDS011;31849;55.992;37.252;2023-07-28T06:58:15;0.80;;;0.70;;
46110;SDS011;31849;55.992;37.252;2023-07-28T07:03:20;1.10;;;1.00;;
46110;SDS011;31849;55.992;37.252;2023-07-28T07:08:24;0.73;;;0.52;;
46110;SDS011;31849;55.992;37.252;2023-07-28T07:18:33;0.73;;;0.65;;
46110;SDS011;31849;55.992;37.252;2023-07-28T07:23:37;0.70;;;0.52;;
46110;SDS011;31849;55.992;37.252;2023-07-28T07:28:40;0.93;;;0.73;;
46110;SDS011;31849;55.992;37.252;2023-07-28T07:33:45;0.60;;;0.43;;
46110;SDS011;31849;55.992;37.252;2023-07-28T07:38:49;0.70;;;0.50;;
46110;SDS011;31849;55.992;37.252;2023-07-28T07:43:53;0.65;;;0.50;;
46110;SDS011;31849;55.992;37.252;2023-07-28T07:48:58;1.05;;;0.77;;
46110;SDS011;31849;55.992;37.252;2023-07-28T07:54:02;0.60;;;0.40;;
46110;SDS011;31849;55.992;37.252;2023-07-28T07:59:06;1.20;;;1.05;;
46110;SDS011;31849;55.992;37.252;2023-07-28T08:04:11;1.00;;;0.65;;
46110;SDS011;31849;55.992;37.252;2023-07-28T08:09:15;0.63;;;0.60;;
46110;SDS011;31849;55.992;37.252;2023-07-28T08:14:19;1.63;;;0.80;;
46110;SDS011;31849;55.992;37.252;2023-07-28T08:19:24;0.95;;;0.60;;
46110;SDS011;31849;55.992;37.252;2023-07-28T08:24:27;4.97;;;1.50;;
46110;SDS011;31849;55.992;37.252;2023-07-28T08:29:31;1.08;;;0.90;;
46110;SDS011;31849;55.992;37.252;2023-07-28T08:34:36;0.73;;;0.55;;
46110;SDS011;31849;55.992;37.252;2023-07-28T08:39:40;0.68;;;0.47;;
46110;SDS011;31849;55.992;37.252;2023-07-28T08:44:43;0.50;;;0.40;;
46110;SDS011;31849;55.992;37.252;2023-07-28T08:49:50;0.65;;;0.52;;
46110;SDS011;31849;55.992;37.252;2023-07-28T08:54:54;0.63;;;0.45;;
46110;SDS011;31849;55.992;37.252;2023-07-28T08:59:57;0.70;;;0.60;;
46110;SDS011;31849;55.992;37.252;2023-07-28T09:05:02;0.90;;;0.65;;
46110;SDS011;31849;55.992;37.252;2023-07-28T09:10:07;0.70;;;0.57;;
46110;SDS011;31849;55.992;37.252;2023-07-28T09:15:12;0.60;;;0.43;;
46110;SDS011;31849;55.992;37.252;2023-07-28T09:20:17;0.60;;;0.40;;
46110;SDS011;31849;55.992;37.252;2023-07-28T09:25:20;0.70;;;0.50;;
46110;SDS011;31849;55.992;37.252;2023-07-28T09:30:25;1.10;;;0.80;;
46110;SDS011;31849;55.992;37.252;2023-07-28T09:35:30;2.15;;;1.30;;
46110;SDS011;31849;55.992;37.252;2023-07-28T09:40:34;0.60;;;0.50;;
46110;SDS011;31849;55.992;37.252;2023-07-28T09:45:37;1.23;;;1.13;;
46110;SDS011;31849;55.992;37.252;2023-07-28T09:50:44;0.70;;;0.55;;
46110;SDS011;31849;55.992;37.252;2023-07-28T09:55:48;0.60;;;0.40;;
46110;SDS011;31849;55.992;37.252;2023-07-28T10:00:53;1.95;;;0.63;;
46110;SDS011;31849;55.992;37.252;2023-07-28T10:05:58;0.60;;;0.40;;
46110;SDS011;31849;55.992;37.252;2023-07-28T10:11:03;0.70;;;0.40;;
46110;SDS011;31849;55.992;37.252;2023-07-28T10:16:07;0.60;;;0.40;;
46110;SDS011;31849;55.992;37.252;2023-07-28T10:21:15;0.70;;;0.50;;
46110;SDS011;31849;55.992;37.252;2023-07-28T10:26:28;1.60;;;0.80;;
46110;SDS011;31849;55.992;37.252;2023-07-28T10:31:36;0.75;;;0.70;;
46110;SDS011;31849;55.992;37.252;2023-07-28T10:42:00;0.60;;;0.40;;
46110;SDS011;31849;55.992;37.252;2023-07-28T10:47:07;0.50;;;0.40;;
46110;SDS011;31849;55.992;37.252;2023-07-28T10:52:13;0.70;;;0.50;;
46110;SDS011;31849;55.992;37.252;2023-07-28T10:57:18;1.33;;;1.23;;
46110;SDS011;31849;55.992;37.252;2023-07-28T11:02:22;0.77;;;0.73;;
46110;SDS011;31849;55.992;37.252;2023-07-28T11:07:27;0.65;;;0.50;;
46110;SDS011;31849;55.992;37.252;2023-07-28T11:12:31;0.73;;;0.55;;
46110;SDS011;31849;55.992;37.252;2023-07-28T11:22:39;7.28;;;6.45;;
46110;SDS011;31849;55.992;37.252;2023-07-28T11:27:44;9.57;;;6.57;;
46110;SDS011;31849;55.992;37.252;2023-07-28T11:32:50;6.50;;;4.63;;
46110;SDS011;31849;55.992;37.252;2023-07-28T11:37:56;6.00;;;4.80;;
46110;SDS011;31849;55.992;37.252;2023-07-28T11:43:00;5.13;;;4.07;;
46110;SDS011;31849;55.992;37.252;2023-07-28T11:48:04;5.28;;;3.97;;
46110;SDS011;31849;55.992;37.252;2023-07-28T11:53:10;5.10;;;3.60;;
46110;SDS011;31849;55.992;37.252;2023-07-28T11:58:14;6.90;;;4.43;;
46110;SDS011;31849;55.992;37.252;2023-07-28T12:03:18;5.95;;;4.30;;
46110;SDS011;31849;55.992;37.252;2023-07-28T12:08:34;7.00;;;4.90;;
46110;SDS011;31849;55.992;37.252;2023-07-28T12:13:46;7.80;;;4.60;;
46110;SDS011;31849;55.992;37.252;2023-07-28T12:18:57;7.05;;;4.90;;
46110;SDS011;31849;55.992;37.252;2023-07-28T12:24:03;7.13;;;4.78;;
46110;SDS011;31849;55.992;37.252;2023-07-28T12:29:09;5.47;;;4.03;;
46110;SDS011;31849;55.992;37.252;2023-07-28T12:34:13;5.88;;;3.67;;
46110;SDS011;31849;55.992;37.252;2023-07-28T12:39:21;7.43;;;3.72;;
46110;SDS011;31849;55.992;37.252;2023-07-28T12:44:28;5.60;;;3.80;;
46110;SDS011;31849;55.992;37.252;2023-07-28T12:49:34;5.90;;;4.07;;
46110;SDS011;31849;55.992;37.252;2023-07-28T12:54:39;5.30;;;3.58;;
46110;SDS011;31849;55.992;37.252;2023-07-28T12:59:45;5.65;;;3.78;;
46110;SDS011;31849;55.992;37.252;2023-07-28T13:04:51;6.05;;;3.47;;
46110;SDS011;31849;55.992;37.252;2023-07-28T13:09:56;5.60;;;3.47;;
46110;SDS011;31849;55.992;37.252;2023-07-28T13:15:00;4.68;;;3.22;;
46110;SDS011;31849;55.992;37.252;2023-07-28T13:20:05;5.80;;;3.42;;
46110;SDS011;31849;55.992;37.252;2023-07-28T13:25:12;4.85;;;3.30;;
46110;SDS011;31849;55.992;37.252;2023-07-28T13:30:16;4.32;;;3.00;;
46110;SDS011;31849;55.992;37.252;2023-07-28T13:35:23;4.88;;;2.97;;
46110;SDS011;31849;55.992;37.252;2023-07-28T13:40:28;3.28;;;2.63;;
46110;SDS011;31849;55.992;37.252;2023-07-28T13:45:31;2.88;;;2.33;;
46110;SDS011;31849;55.992;37.252;2023-07-28T13:50:35;4.63;;;2.30;;
46110;SDS011;31849;55.992;37.252;2023-07-28T13:55:41;6.03;;;2.80;;
46110;SDS011;31849;55.992;37.252;2023-07-28T14:00:45;3.22;;;2.03;;
46110;SDS011;31849;55.992;37.252;2023-07-28T14:05:49;4.45;;;2.50;;
46110;SDS011;31849;55.992;37.252;2023-07-28T14:10:57;3.33;;;2.30;;
46110;SDS011;31849;55.992;37.252;2023-07-28T14:16:01;3.33;;;2.63;;
46110;SDS011;31849;55.992;37.252;2023-07-28T14:21:05;4.38;;;3.20;;
46110;SDS011;31849;55.992;37.252;2023-07-28T14:26:10;3.60;;;2.40;;
46110;SDS011;31849;55.992;37.252;2023-07-28T14:31:15;5.68;;;3.08;;
46110;SDS011;31849;55.992;37.252;2023-07-28T14:36:19;5.05;;;2.88;;
46110;SDS011;31849;55.992;37.252;2023-07-28T14:41:24;3.72;;;2.70;;
46110;SDS011;31849;55.992;37.252;2023-07-28T14:46:28;5.13;;;1.70;;
46110;SDS011;31849;55.992;37.252;2023-07-28T14:51:31;3.70;;;1.60;;
46110;SDS011;31849;55.992;37.252;2023-07-28T14:56:38;4.07;;;1.48;;
46110;SDS011;31849;55.992;37.252;2023-07-28T15:01:41;4.28;;;1.98;;
46110;SDS011;31849;55.992;37.252;2023-07-28T15:06:45;3.00;;;1.90;;
46110;SDS011;31849;55.992;37.252;2023-07-28T15:11:50;5.90;;;1.88;;
46110;SDS011;31849;55.992;37.252;2023-07-28T15:16:54;2.60;;;1.60;;
46110;SDS011;31849;55.992;37.252;2023-07-28T15:21:58;2.17;;;1.40;;
46110;SDS011;31849;55.992;37.252;2023-07-28T15:27:03;3.22;;;1.52;;
46110;SDS011;31849;55.992;37.252;2023-07-28T15:32:07;3.00;;;1.40;;
46110;SDS011;31849;55.992;37.252;2023-07-28T15:37:11;3.17;;;1.25;;
46110;SDS011;31849;55.992;37.252;2023-07-28T15:42:16;1.92;;;1.30;;
46110;SDS011;31849;55.992;37.252;2023-07-28T15:47:20;3.33;;;1.52;;
46110;SDS011;31849;55.992;37.252;2023-07-28T15:52:24;2.38;;;1.00;;
46110;SDS011;31849;55.992;37.252;2023-07-28T15:57:29;2.88;;;1.30;;
46110;SDS011;31849;55.992;37.252;2023-07-28T16:02:33;1.70;;;1.10;;
46110;SDS011;31849;55.992;37.252;2023-07-28T16:07:36;1.85;;;1.20;;
46110;SDS011;31849;55.992;37.252;2023-07-28T16:12:43;3.63;;;1.50;;
46110;SDS011;31849;55.992;37.252;2023-07-28T16:17:46;4.05;;;1.35;;
46110;SDS011;31849;55.992;37.252;2023-07-28T16:22:53;3.95;;;1.58;;
46110;SDS011;31849;55.992;37.252;2023-07-28T16:27:58;2.92;;;1.30;;
46110;SDS011;31849;55.992;37.252;2023-07-28T16:33:02;3.58;;;1.50;;
46110;SDS011;31849;55.992;37.252;2023-07-28T16:38:06;2.65;;;1.25;;
46110;SDS011;31849;55.992;37.252;2023-07-28T16:53:18;2.63;;;1.30;;
46110;SDS011;31849;55.992;37.252;2023-07-28T16:58:24;3.38;;;1.50;;
46110;SDS011;31849;55.992;37.252;2023-07-28T17:03:27;3.60;;;1.58;;
46110;SDS011;31849;55.992;37.252;2023-07-28T17:08:31;2.22;;;1.55;;
46110;SDS011;31849;55.992;37.252;2023-07-28T17:13:36;3.95;;;1.98;;
46110;SDS011;31849;55.992;37.252;2023-07-28T17:18:40;2.50;;;1.77;;
46110;SDS011;31849;55.992;37.252;2023-07-28T17:23:46;5.90;;;2.60;;
46110;SDS011;31849;55.992;37.252;2023-07-28T17:28:51;3.75;;;1.85;;
46110;SDS011;31849;55.992;37.252;2023-07-28T17:33:54;4.15;;;1.92;;
46110;SDS011;31849;55.992;37.252;2023-07-28T17:38:58;3.33;;;1.90;;
46110;SDS011;31849;55.992;37.252;2023-07-28T17:44:03;4.15;;;1.88;;
46110;SDS011;31849;55.992;37.252;2023-07-28T17:49:07;4.45;;;2.10;;
46110;SDS011;31849;55.992;37.252;2023-07-28T17:54:11;5.13;;;1.77;;
46110;SDS011;31849;55.992;37.252;2023-07-28T17:59:16;4.55;;;1.65;;
46110;SDS011;31849;55.992;37.252;2023-07-28T18:04:19;3.58;;;2.03;;
46110;SDS011;31849;55.992;37.252;2023-07-28T18:09:24;3.05;;;1.73;;
46110;SDS011;31849;55.992;37.252;2023-07-28T18:14:29;3.70;;;1.60;;
46110;SDS011;31849;55.992;37.252;2023-07-28T18:19:33;4.20;;;1.50;;
46110;SDS011;31849;55.992;37.252;2023-07-28T18:24:36;3.55;;;1.42;;
46110;SDS011;31849;55.992;37.252;2023-07-28T18:34:46;2.20;;;1.42;;
46110;SDS011;31849;55.992;37.252;2023-07-28T18:39:49;2.13;;;1.40;;
46110;SDS011;31849;55.992;37.252;2023-07-28T18:44:55;4.18;;;1.83;;
46110;SDS011;31849;55.992;37.252;2023-07-28T18:49:58;3.38;;;1.70;;
46110;SDS011;31849;55.992;37.252;2023-07-28T18:55:05;4.22;;;2.00;;
46110;SDS011;31849;55.992;37.252;2023-07-28T19:00:11;4.20;;;1.67;;
46110;SDS011;31849;55.992;37.252;2023-07-28T19:05:15;5.88;;;2.00;;
46110;SDS011;31849;55.992;37.252;2023-07-28T19:10:19;3.65;;;1.88;;
46110;SDS011;31849;55.992;37.252;2023-07-28T19:15:24;4.32;;;2.05;;
46110;SDS011;31849;55.992;37.252;2023-07-28T19:20:47;3.07;;;2.10;;
46110;SDS011;31849;55.992;37.252;2023-07-28T19:30:56;4.82;;;2.00;;
46110;SDS011;31849;55.992;37.252;2023-07-28T19:36:05;8.07;;;2.00;;
46110;SDS011;31849;55.992;37.252;2023-07-28T19:41:09;3.78;;;2.08;;
46110;SDS011;31849;55.992;37.252;2023-07-28T19:46:15;5.72;;;2.45;;
46110;SDS011;31849;55.992;37.252;2023-07-28T19:51:22;3.85;;;2.10;;
46110;SDS011;31849;55.992;37.252;2023-07-28T19:56:26;4.88;;;2.25;;
46110;SDS011;31849;55.992;37.252;2023-07-28T20:01:31;4.63;;;2.30;;
46110;SDS011;31849;55.992;37.252;2023-07-28T20:06:35;3.72;;;2.40;;
46110;SDS011;31849;55.992;37.252;2023-07-28T20:11:39;6.78;;;2.80;;
46110;SDS011;31849;55.992;37.252;2023-07-28T20:16:44;7.50;;;3.57;;
46110;SDS011;31849;55.992;37.252;2023-07-28T20:21:48;4.60;;;3.00;;
46110;SDS011;31849;55.992;37.252;2023-07-28T20:26:51;5.50;;;3.23;;
46110;SDS011;31849;55.992;37.252;2023-07-28T20:31:56;4.72;;;3.10;;
46110;SDS011;31849;55.992;37.252;2023-07-28T20:37:00;8.05;;;3.30;;
46110;SDS011;31849;55.992;37.252;2023-07-28T20:42:04;6.60;;;3.00;;
46110;SDS011;31849;55.992;37.252;2023-07-28T20:47:10;5.05;;;2.97;;
46110;SDS011;31849;55.992;37.252;2023-07-28T20:52:14;4.32;;;2.53;;
46110;SDS011;31849;55.992;37.252;2023-07-28T20:57:17;6.93;;;2.97;;
46110;SDS011;31849;55.992;37.252;2023-07-28T21:02:23;4.75;;;2.63;;
46110;SDS011;31849;55.992;37.252;2023-07-28T21:07:27;4.88;;;2.55;;
46110;SDS011;31849;55.992;37.252;2023-07-28T21:12:31;5.55;;;2.63;;
46110;SDS011;31849;55.992;37.252;2023-07-28T21:17:36;4.15;;;2.67;;
46110;SDS011;31849;55.992;37.252;2023-07-28T21:22:39;5.50;;;2.78;;
46110;SDS011;31849;55.992;37.252;2023-07-28T21:27:43;5.80;;;2.77;;
46110;SDS011;31849;55.992;37.252;2023-07-28T21:32:48;4.10;;;2.78;;
46110;SDS011;31849;55.992;37.252;2023-07-28T21:37:52;5.18;;;2.58;;
46110;SDS011;31849;55.992;37.252;2023-07-28T21:42:56;4.55;;;2.72;;
46110;SDS011;31849;55.992;37.252;2023-07-28T21:48:01;3.63;;;2.70;;
46110;SDS011;31849;55.992;37.252;2023-07-28T21:53:05;7.70;;;2.83;;
46110;SDS011;31849;55.992;37.252;2023-07-28T21:58:09;3.57;;;2.37;;
46110;SDS011;31849;55.992;37.252;2023-07-28T22:03:14;5.03;;;2.38;;
46110;SDS011;31849;55.992;37.252;2023-07-28T22:08:18;3.85;;;2.75;;
46110;SDS011;31849;55.992;37.252;2023-07-28T22:13:21;3.57;;;2.60;;
46110;SDS011;31849;55.992;37.252;2023-07-28T22:18:27;4.00;;;2.80;;
46110;SDS011;31849;55.992;37.252;2023-07-28T22:23:30;6.03;;;2.60;;
46110;SDS011;31849;55.992;37.252;2023-07-28T22:28:34;5.43;;;2.60;;
46110;SDS011;31849;55.992;37.252;2023-07-28T22:33:39;5.90;;;3.00;;
46110;SDS011;31849;55.992;37.252;2023-07-28T22:38:43;6.05;;;3.30;;
46110;SDS011;31849;55.992;37.252;2023-07-28T22:43:47;7.00;;;3.33;;
46110;SDS011;31849;55.992;37.252;2023-07-28T22:48:52;5.80;;;3.13;;
46110;SDS011;31849;55.992;37.252;2023-07-28T22:53:55;4.57;;;3.45;;
46110;SDS011;31849;55.992;37.252;2023-07-28T22:58:59;8.13;;;3.75;;
46110;SDS011;31849;55.992;37.252;2023-07-28T23:04:04;8.13;;;3.67;;
46110;SDS011;31849;55.992;37.252;2023-07-28T23:09:08;9.02;;;3.75;;
46110;SDS011;31849;55.992;37.252;2023-07-28T23:14:13;4.72;;;3.75;;
46110;SDS011;31849;55.992;37.252;2023-07-28T23:19:18;5.50;;;3.50;;
46110;SDS011;31849;55.992;37.252;2023-07-28T23:24:21;5.85;;;3.70;;
46110;SDS011;31849;55.992;37.252;2023-07-28T23:29:25;7.80;;;3.73;;
46110;SDS011;31849;55.992;37.252;2023-07-28T23:34:30;8.10;;;3.80;;
46110;SDS011;31849;55.992;37.252;2023-07-28T23:39:35;6.25;;;3.45;;
46110;SDS011;31849;55.992;37.252;2023-07-28T23:44:39;4.73;;;3.27;;
46110;SDS011;31849;55.992;37.252;2023-07-28T23:49:44;6.77;;;3.37;;
46110;SDS011;31849;55.992;37.252;2023-07-28T23:54:47;4.03;;;3.15;;
46110;SDS011;31849;55.992;37.252;2023-07-28T23:59:51;6.07;;;3.83;;
